x

South Bass Island, Oh (sbio1) Weather Station

11:00am - Thu 30th Jun 2016 All times are CDT. -5 hours from GMT.

  • Wind
    2mph
  • Air Temp 73°f
  • Sea Pressure 1017.5mb
  • South Bass Island, Oh
  • South Bass Island, Oh

More Historic Weather Station data

Upgrade to MSW Pro to gain access to the past 30 days of data for over 8000 Wavebouys and Weather Stations around the globe.

Join Pro

Comparision Forecast

View Surf forecast
   
Thu 06/30 11:00am 2
mph
1017.5mb 73f
10:00am 6
mph
1017.8mb 71f
9:00am 7
mph
1017.8mb 68f
8:00am 9 10 mph 1018mb 68f
7:00am 10 11 mph 1018mb 67f
6:00am 14 15 mph 1017.7mb 68f
5:00am 16 18 mph 1017.4mb 67f
4:00am 13
mph
1017mb 68f
3:00am 9 13 mph 1017mb 69f
2:00am 9 13 mph 1017.1mb 69f
1:00am 6 9 mph 1017.5mb 70f
12:00am 9 10 mph 1017.5mb 70f
Wed 06/29 11:00pm 13 14 mph 1017.5mb 70f
10:00pm 10 13 mph 1017.2mb 71f
9:00pm 10 13 mph 1017mb 72f
8:00pm 9 10 mph 1016.8mb 73f
7:00pm 3 7 mph 1017.1mb 76f
6:00pm 2 3 mph 1017mb 77f
5:00pm  -  1 mph 1017.4mb 77f
4:00pm 5 6 mph 1017.9mb 75f
3:00pm 8 10 mph 1018.6mb 70f
2:00pm 8 9 mph 1018.8mb 69f
1:00pm 6 7 mph 1018.7mb 70f
12:00pm 6 7 mph 1019.1mb 69f
11:00am 8
mph
1019.5mb 69f
10:00am 6 8 mph 1019.7mb 68f
9:00am 11 13 mph 1019.6mb 66f
8:00am 8 13 mph 1018.6mb 65f
7:00am 2 5 mph 1018.8mb 64f
6:00am 7 8 mph 1019mb 61f
5:00am 6 8 mph 1018.3mb 61f
4:00am 6 8 mph 1017.8mb 61f
3:00am 7 8 mph 1017.8mb 62f
2:00am 6 8 mph 1017.6mb 62f
1:00am 6 9 mph 1017.6mb 63f
12:00am 6 8 mph 1017.6mb 64f
Tue 06/28 11:00pm 5 7 mph 1017.7mb 65f
10:00pm 7 10 mph 1017.8mb 65f
9:00pm 6 9 mph 1017.5mb 66f
8:00pm 10 16 mph 1017.1mb 67f
7:00pm 7 11 mph 1017.3mb 68f
6:00pm 10 14 mph 1017.2mb 68f
5:00pm 10 13 mph 1017mb 69f
4:00pm 11 15 mph 1017mb 71f
3:00pm 14 16 mph 1016.7mb 71f
2:00pm 17 22 mph 1016.9mb 70f
1:00pm 16 18 mph 1017mb 70f
12:00pm 18 22 mph 1017mb 70f
11:00am 20 21 mph 1016.8mb 70f
10:00am 11 14 mph 1016.7mb 69f
9:00am 7 9 mph 1016.9mb 68f
8:00am 5 8 mph 1016.9mb 68f
7:00am 6 7 mph 1016.6mb 68f
6:00am 3 6 mph 1016.1mb 66f
5:00am 5 6 mph 1015.8mb 66f
4:00am 6 7 mph 1015.6mb 66f
3:00am 6 11 mph 1015.7mb 67f
2:00am 7 11 mph 1015.3mb 68f
1:00am 3 6 mph 1015.2mb 69f
12:00am 3 6 mph 1015.1mb 70f
Mon 06/27 11:00pm 5 7 mph 1014.8mb 71f
10:00pm 15 16 mph 1014.2mb 77f
9:00pm 16 17 mph 1013.7mb 78f
8:00pm 21 22 mph 1013.1mb 79f
7:00pm 21 22 mph 1012.4mb 82f
6:00pm 16 17 mph 1012mb 84f
5:00pm 20 21 mph 1011.9mb 85f
4:00pm 14 15 mph 1012.3mb 85f
3:00pm 13 15 mph 1013.2mb 84f
2:00pm 11 13 mph 1013.9mb 83f
1:00pm 7 8 mph 1014.8mb 82f
12:00pm 8
mph
1015.4mb 80f
11:00am 6 7 mph 1016mb 78f
10:00am 6 7 mph 1016mb 76f
9:00am 6
mph
1016.3mb 75f
8:00am 7 9 mph 1016.4mb 74f
7:00am 10 11 mph 1016mb 73f
6:00am 11 13 mph 1015.6mb 73f
5:00am 14 15 mph 1015.5mb 71f
4:00am 15 16 mph 1015.3mb 72f
3:00am 17 18 mph 1015.1mb 73f
2:00am 17 20 mph 1015.3mb 73f
1:00am 20 22 mph 1015.7mb 74f
12:00am 16 17 mph 1015.5mb 76f
Sun 06/26 11:00pm 15 16 mph 1015.5mb 76f
10:00pm 7 10 mph 1015.6mb 75f
9:00pm 13 14 mph 1014.7mb 79f
8:00pm 14 15 mph 1014mb 77f
7:00pm 24 29 mph 1013.9mb 80f
6:00pm 17 20 mph 1013.5mb 82f